TALO2: Illinois River, Tahlequah, OK

                                SHEF ID:       TALO2     Illinois River near Tahlequah, O
STATION TYPE:
Regulating: Stage = 11.00, Flow = 10168

PRECIP STAGE STAGE(2) RIV-FLOW BAT-LOAD
in ft ft cfs volt
Ccp-Rev Ccp-Rev Ccp-Rev Ccp-Rev Ccp-Rev
(America/Chicago)
04/29 00:00 ---- 8.31 ---- 4545 12.01
04/29 01:00 ---- 8.38 ---- 4679 12.09
04/29 02:00 ---- 8.41 ---- 4736 12.01
04/29 03:00 ---- 8.44 ---- 4794 11.93
04/29 04:00 ---- 8.41 ---- 4736 11.93
04/29 05:00 ---- 8.37 ---- 4660 11.77
04/29 06:00 ---- 8.33 ---- 4583 11.77
04/29 07:00 ---- 8.28 ---- 4488 11.86
04/29 08:00 ---- 8.25 ---- 4431 12.01
04/29 09:00 ---- 8.21 ---- 4354 12.41
04/29 10:00 ---- 8.17 ---- 4279 12.89
04/29 11:00 ---- 8.17 ---- 4279 12.97
04/29 12:00 ---- 8.18 ---- 4298 12.81
04/29 13:00 ---- 8.21 ---- 4354 12.65
04/29 14:00 ---- 8.25 ---- 4431 12.73
04/29 15:00 ---- 8.30 ---- 4526 12.89
04/29 16:00 ---- 8.37 ---- 4660 12.81
04/29 17:00 ---- 8.43 ---- 4775 12.65
04/29 18:00 ---- 8.46 ---- 4833 12.49
04/29 19:00 ---- 8.53 ---- 4968 12.65
04/29 20:00 ---- 8.67 ---- 5240 12.57
04/29 21:00 ---- 8.80 ---- 5495 12.33
04/29 22:00 ---- 8.96 ---- 5810 12.09
04/29 23:00 ---- ---- ---- ---- ----
Data processed at Thu 30Apr2026 04:33 GMT

NOTICE: If you are parsing this page

Please convert to using our Data API. Starting early 2026 we will be migrating to: https://water.usace.army.mil with modern pages rendered in JavaScript. When this migration completes you will no longer be able to scrape this page! CWMSDataAPI (CDA)

Timeseries IDs (TSIDs)

TSIDs used from left to right in the data table
TAHL.Precip-Inc.Total.1Hour.0.Ccp-Rev
TAHL.Stage.Inst.1Hour.0.Ccp-Rev
TAHL.Stage-Alt.Inst.1Hour.0.Ccp-Rev
TAHL.Flow.Inst.1Hour.0.Ccp-Rev
TAHL.Volt-Battery Load.Inst.1Hour.0.Ccp-Rev

                            

All information presented herein is the property of the government of the United States of America and may be revised or deleted at any time without prior notice. Dissemination of this information without the expressed written consent of the Public Affairs Office, Tulsa District U.S. Army Corps of Engineers is strictly prohibited. These data are gathered electronically and, as presented, have NOT undergone any form of quality control. These data are NOT guaranteed to be valid or correct.